Time;durP1;ratioP1;P1;durP2;ratioP2;P2;SDS_P1;SDS_P2;PMS_P1;PMS_P2;Temp;Humidity;BMP_temperature;BMP_pressure;BME280_temperature;BME280_humidity;BME280_pressure;Samples;Min_cycle;Max_cycle;Signal;HPM_P1;HPM_P2
2022/05/27 00:00:17;;;;;;;10.20;7.53;;;;;;;;;;5038670;28;20185;-66
2022/05/27 00:02:42;;;;;;;16.05;8.27;;;;;;;;;;5031007;28;20182;-65
2022/05/27 00:05:09;;;;;;;21.98;8.70;;;;;;;;;;5043251;28;20679;-66
2022/05/27 00:07:34;;;;;;;15.55;8.70;;;;;;;;;;5044011;28;20254;-66
2022/05/27 00:09:59;;;;;;;17.40;8.90;;;;;;;;;;5034657;28;20261;-67
2022/05/27 00:12:25;;;;;;;17.05;9.02;;;;;;;;;;5037056;28;20221;-65
2022/05/27 00:14:50;;;;;;;11.07;7.90;;;;;;;;;;5045750;28;20273;-66
2022/05/27 00:17:16;;;;;;;11.38;8.73;;;;;;;;;;5044547;28;20236;-66
2022/05/27 00:19:41;;;;;;;16.20;9.15;;;;;;;;;;5031530;28;20665;-69
2022/05/27 00:22:08;;;;;;;15.10;9.50;;;;;;;;;;5044019;28;20189;-70
2022/05/27 00:24:35;;;;;;;17.63;9.77;;;;;;;;;;5046725;28;20185;-74
2022/05/27 00:27:01;;;;;;;14.48;10.27;;;;;;;;;;5046105;28;20580;-76
2022/05/27 00:29:26;;;;;;;16.27;10.50;;;;;;;;;;5042926;28;20190;-75
2022/05/27 00:31:52;;;;;;;21.38;11.20;;;;;;;;;;5033756;28;20205;-76
2022/05/27 00:34:17;;;;;;;18.75;9.88;;;;;;;;;;5038327;28;20707;-70
2022/05/27 00:36:42;;;;;;;8.93;6.18;;;;;;;;;;5036234;28;20186;-70
2022/05/27 00:39:08;;;;;;;10.95;6.50;;;;;;;;;;5038453;28;20190;-75
2022/05/27 00:41:33;;;;;;;11.77;5.75;;;;;;;;;;5039532;28;20186;-77
2022/05/27 00:43:59;;;;;;;8.35;4.55;;;;;;;;;;5036235;28;20577;-75
2022/05/27 00:46:30;;;;;;;6.97;4.10;;;;;;;;;;5037339;28;20185;-75
2022/05/27 00:49:03;;;;;;;6.85;3.13;;;;;;;;;;5046751;28;20194;-73
2022/05/27 00:51:33;;;;;;;3.97;3.00;;;;;;;;;;5039575;28;20206;-71
2022/05/27 00:54:06;;;;;;;3.92;2.20;;;;;;;;;;5037956;28;20666;-71
2022/05/27 00:56:35;;;;;;;3.90;2.25;;;;;;;;;;5035597;28;20719;-69
2022/05/27 00:59:19;;;;;;;2.92;1.95;;;;;;;;;;5037276;28;20197;-69
2022/05/27 01:01:45;;;;;;;4.47;2.80;;;;;;;;;;5048450;28;20188;-70
2022/05/27 01:04:10;;;;;;;6.13;2.40;;;;;;;;;;5040010;28;20186;-68
2022/05/27 01:06:36;;;;;;;3.47;2.20;;;;;;;;;;5037736;28;20525;-68
2022/05/27 01:09:03;;;;;;;3.83;1.85;;;;;;;;;;5046321;28;20362;-70
2022/05/27 01:12:17;;;;;;;3.67;2.47;;;;;;;;;;5040036;28;20226;-68
2022/05/27 01:15:09;;;;;;;4.15;2.33;;;;;;;;;;5022389;28;20743;-69
2022/05/27 01:17:54;;;;;;;7.10;2.15;;;;;;;;;;5018137;28;20230;-69
2022/05/27 01:20:27;;;;;;;4.88;2.40;;;;;;;;;;5032436;28;20733;-69
2022/05/27 01:23:21;;;;;;;4.55;2.22;;;;;;;;;;5043903;28;20629;-70
2022/05/27 01:26:19;;;;;;;7.88;2.50;;;;;;;;;;5034605;28;20190;-68
2022/05/27 01:28:53;;;;;;;4.68;2.45;;;;;;;;;;5033992;28;20196;-69
2022/05/27 01:31:33;;;;;;;4.35;2.28;;;;;;;;;;5038646;28;20210;-69
2022/05/27 01:34:24;;;;;;;5.63;2.95;;;;;;;;;;5041654;28;20184;-69
2022/05/27 01:37:10;;;;;;;6.03;2.78;;;;;;;;;;5044865;28;20540;-69
2022/05/27 01:39:53;;;;;;;5.43;2.88;;;;;;;;;;5036235;28;20181;-69
2022/05/27 01:42:55;;;;;;;6.80;3.00;;;;;;;;;;5036191;28;20582;-70
2022/05/27 01:45:43;;;;;;;8.05;3.30;;;;;;;;;;5036497;28;20189;-71
2022/05/27 01:48:20;;;;;;;5.63;3.67;;;;;;;;;;5039234;28;20517;-69
2022/05/27 01:51:09;;;;;;;5.05;3.22;;;;;;;;;;5041222;28;20291;-70
2022/05/27 01:53:42;;;;;;;9.48;3.80;;;;;;;;;;5038839;28;20526;-69
2022/05/27 01:56:19;;;;;;;9.68;3.95;;;;;;;;;;5041408;28;20273;-69
2022/05/27 01:58:51;;;;;;;7.95;3.97;;;;;;;;;;5043528;28;20640;-70
2022/05/27 02:01:22;;;;;;;8.85;3.50;;;;;;;;;;5029638;28;20178;-68
2022/05/27 02:04:09;;;;;;;8.48;3.53;;;;;;;;;;5036694;28;20536;-69
2022/05/27 02:06:40;;;;;;;8.10;4.18;;;;;;;;;;5049312;28;20196;-69
2022/05/27 02:09:15;;;;;;;6.57;4.78;;;;;;;;;;5037225;28;20201;-69
2022/05/27 02:11:44;;;;;;;16.33;4.50;;;;;;;;;;5038162;28;20229;-69
2022/05/27 02:14:25;;;;;;;10.45;4.97;;;;;;;;;;5038269;28;20577;-68
2022/05/27 02:16:58;;;;;;;6.45;4.20;;;;;;;;;;5035092;28;20715;-69
2022/05/27 02:19:38;;;;;;;9.85;4.80;;;;;;;;;;5028476;28;20208;-70
2022/05/27 02:22:16;;;;;;;9.88;4.80;;;;;;;;;;5040297;28;20748;-70
2022/05/27 02:24:58;;;;;;;11.45;4.72;;;;;;;;;;5038278;28;20177;-69
2022/05/27 02:27:47;;;;;;;11.13;5.25;;;;;;;;;;5039497;28;20185;-69
2022/05/27 02:30:16;;;;;;;8.43;4.50;;;;;;;;;;5038682;28;20288;-71
2022/05/27 02:32:46;;;;;;;12.40;4.70;;;;;;;;;;5038948;28;20209;-68
2022/05/27 02:35:18;;;;;;;8.07;5.22;;;;;;;;;;5031681;28;20201;-70
2022/05/27 02:37:50;;;;;;;11.55;5.20;;;;;;;;;;5042842;28;20193;-69
2022/05/27 02:40:18;;;;;;;9.95;5.18;;;;;;;;;;5035046;28;20635;-69
2022/05/27 02:43:08;;;;;;;12.93;5.32;;;;;;;;;;5041715;28;20186;-69
2022/05/27 02:45:58;;;;;;;9.23;5.78;;;;;;;;;;5037614;28;20244;-70
2022/05/27 02:48:36;;;;;;;19.60;5.88;;;;;;;;;;5036767;28;20196;-68
2022/05/27 02:51:10;;;;;;;7.75;5.25;;;;;;;;;;5039962;28;20267;-69
2022/05/27 02:53:52;;;;;;;13.07;5.55;;;;;;;;;;5038322;28;20177;-68
2022/05/27 02:56:25;;;;;;;13.68;5.90;;;;;;;;;;5028748;28;20272;-69
2022/05/27 02:58:52;;;;;;;15.90;5.60;;;;;;;;;;5035033;28;20239;-70
2022/05/27 03:01:17;;;;;;;12.40;5.65;;;;;;;;;;5036221;28;20371;-69
2022/05/27 03:03:43;;;;;;;10.98;5.57;;;;;;;;;;5032548;28;20549;-71
2022/05/27 03:06:26;;;;;;;10.15;5.43;;;;;;;;;;5033716;28;20193;-69
2022/05/27 03:09:00;;;;;;;13.25;5.18;;;;;;;;;;5036147;28;20247;-71
2022/05/27 03:11:47;;;;;;;9.65;4.70;;;;;;;;;;5044440;28;20213;-70
2022/05/27 03:14:18;;;;;;;15.52;5.40;;;;;;;;;;5030434;28;20186;-71
2022/05/27 03:17:25;;;;;;;13.52;5.68;;;;;;;;;;5044574;28;20245;-71
2022/05/27 03:20:09;;;;;;;16.20;5.43;;;;;;;;;;5043842;28;20174;-71
2022/05/27 03:22:44;;;;;;;11.98;5.18;;;;;;;;;;5039545;28;20645;-71
2022/05/27 03:25:22;;;;;;;11.50;5.28;;;;;;;;;;5031926;28;20173;-70
2022/05/27 03:28:30;;;;;;;12.10;5.00;;;;;;;;;;5029055;28;20193;-70
2022/05/27 03:30:55;;;;;;;13.82;5.20;;;;;;;;;;5039198;28;20297;-70
2022/05/27 03:33:38;;;;;;;10.32;5.18;;;;;;;;;;5033995;28;20293;-70
2022/05/27 03:36:13;;;;;;;13.52;5.22;;;;;;;;;;5037273;28;20178;-71
2022/05/27 03:39:04;;;;;;;15.25;6.07;;;;;;;;;;5042893;28;20193;-71
2022/05/27 03:41:35;;;;;;;12.60;5.10;;;;;;;;;;5040640;28;20324;-69
2022/05/27 03:44:01;;;;;;;11.43;5.22;;;;;;;;;;5032379;28;20525;-69
2022/05/27 03:46:33;;;;;;;14.27;5.50;;;;;;;;;;5036389;28;20197;-70
2022/05/27 03:48:59;;;;;;;13.65;6.00;;;;;;;;;;5038236;28;20210;-70
2022/05/27 03:51:29;;;;;;;16.92;5.85;;;;;;;;;;5028117;28;20205;-70
2022/05/27 03:54:04;;;;;;;16.60;5.65;;;;;;;;;;5028400;28;20256;-70
2022/05/27 03:56:32;;;;;;;11.93;6.25;;;;;;;;;;5032279;28;20553;-69
2022/05/27 03:58:58;;;;;;;18.08;6.45;;;;;;;;;;5041135;28;20196;-69
2022/05/27 04:01:25;;;;;;;14.68;6.45;;;;;;;;;;5036528;28;20498;-69
2022/05/27 04:03:52;;;;;;;11.93;6.05;;;;;;;;;;5031394;28;20232;-70
2022/05/27 04:06:18;;;;;;;15.30;6.05;;;;;;;;;;5035146;28;20178;-69
2022/05/27 04:08:43;;;;;;;14.43;6.70;;;;;;;;;;5040639;28;20209;-69
2022/05/27 04:11:09;;;;;;;17.50;6.93;;;;;;;;;;5032786;28;20734;-70
2022/05/27 04:13:34;;;;;;;14.32;6.05;;;;;;;;;;5037436;28;20273;-70
2022/05/27 04:16:00;;;;;;;15.75;6.68;;;;;;;;;;5040748;28;20614;-70
2022/05/27 04:18:25;;;;;;;17.13;6.90;;;;;;;;;;5032818;28;20197;-69
2022/05/27 04:20:50;;;;;;;10.27;6.25;;;;;;;;;;5041392;28;20640;-69
2022/05/27 04:23:16;;;;;;;11.07;5.82;;;;;;;;;;5032149;28;20242;-68
2022/05/27 04:25:45;;;;;;;9.88;5.80;;;;;;;;;;5032650;28;20194;-69
2022/05/27 04:28:11;;;;;;;15.02;5.60;;;;;;;;;;5039777;28;20174;-68
2022/05/27 04:30:36;;;;;;;12.30;5.50;;;;;;;;;;5045210;28;20255;-68
2022/05/27 04:33:01;;;;;;;10.18;5.20;;;;;;;;;;5032667;28;20182;-67
2022/05/27 04:35:27;;;;;;;14.55;5.10;;;;;;;;;;5042107;28;20246;-69
2022/05/27 04:37:52;;;;;;;12.10;4.88;;;;;;;;;;5043355;28;20193;-69
2022/05/27 04:40:17;;;;;;;8.95;4.85;;;;;;;;;;5032035;28;20186;-68
2022/05/27 04:42:44;;;;;;;9.77;4.57;;;;;;;;;;5033023;28;20182;-69
2022/05/27 04:45:10;;;;;;;9.75;4.75;;;;;;;;;;5040962;28;20182;-68
2022/05/27 04:47:37;;;;;;;11.43;4.75;;;;;;;;;;5045134;28;20217;-69
2022/05/27 04:50:03;;;;;;;8.90;4.13;;;;;;;;;;5039351;28;20204;-68
2022/05/27 04:52:31;;;;;;;12.18;4.32;;;;;;;;;;5034364;28;20205;-69
2022/05/27 04:54:59;;;;;;;11.98;4.85;;;;;;;;;;5036516;28;20276;-68
2022/05/27 04:57:32;;;;;;;12.15;4.68;;;;;;;;;;5029538;28;20217;-68
2022/05/27 04:59:59;;;;;;;9.02;4.00;;;;;;;;;;5042910;28;20280;-66
2022/05/27 05:02:25;;;;;;;12.23;4.60;;;;;;;;;;5035794;28;20514;-68
2022/05/27 05:04:52;;;;;;;12.05;4.22;;;;;;;;;;5036333;28;20204;-68
2022/05/27 05:07:20;;;;;;;9.52;4.22;;;;;;;;;;5042403;28;20189;-68
2022/05/27 05:09:46;;;;;;;9.57;4.30;;;;;;;;;;5039310;28;20653;-65
2022/05/27 05:12:12;;;;;;;12.00;4.40;;;;;;;;;;5040648;28;20283;-68
2022/05/27 05:14:39;;;;;;;15.68;4.28;;;;;;;;;;5031538;28;20190;-70
2022/05/27 05:17:05;;;;;;;13.48;3.78;;;;;;;;;;5034556;28;20178;-68
2022/05/27 05:19:31;;;;;;;14.35;4.25;;;;;;;;;;5035542;28;20191;-69
2022/05/27 05:21:56;;;;;;;10.45;4.20;;;;;;;;;;5032258;28;20177;-67
2022/05/27 05:24:22;;;;;;;9.15;3.85;;;;;;;;;;5019370;28;20189;-67
2022/05/27 05:26:47;;;;;;;12.68;3.80;;;;;;;;;;5036640;28;20178;-69
2022/05/27 05:29:12;;;;;;;8.52;3.55;;;;;;;;;;5037940;28;20212;-67
2022/05/27 05:31:38;;;;;;;8.60;3.50;;;;;;;;;;5036741;28;20220;-66
2022/05/27 05:34:03;;;;;;;12.50;3.92;;;;;;;;;;5036915;28;20650;-69
2022/05/27 05:36:30;;;;;;;9.13;3.80;;;;;;;;;;5037218;28;20193;-69
2022/05/27 05:38:56;;;;;;;10.15;3.78;;;;;;;;;;5037478;28;20182;-66
2022/05/27 05:41:31;;;;;;;11.40;3.60;;;;;;;;;;5031374;28;20327;-66
2022/05/27 05:43:57;;;;;;;8.32;3.10;;;;;;;;;;5038155;28;20196;-68
2022/05/27 05:46:24;;;;;;;12.25;3.47;;;;;;;;;;5035070;28;20177;-67
2022/05/27 05:48:50;;;;;;;9.23;3.50;;;;;;;;;;5039488;28;20464;-69
2022/05/27 05:51:16;;;;;;;12.85;3.10;;;;;;;;;;5038987;28;20194;-67
2022/05/27 05:53:41;;;;;;;8.70;3.20;;;;;;;;;;5036355;28;20273;-67
2022/05/27 05:56:06;;;;;;;9.90;2.80;;;;;;;;;;5037405;28;20179;-65
2022/05/27 05:58:32;;;;;;;10.57;2.95;;;;;;;;;;5037941;28;20174;-68
2022/05/27 06:00:58;;;;;;;7.57;2.22;;;;;;;;;;5037988;28;20691;-67
2022/05/27 06:03:23;;;;;;;8.10;2.20;;;;;;;;;;5036907;28;20178;-69
2022/05/27 06:05:49;;;;;;;7.63;2.10;;;;;;;;;;5038548;28;20257;-68
2022/05/27 06:08:18;;;;;;;6.90;2.13;;;;;;;;;;5041987;28;20181;-67
2022/05/27 06:10:45;;;;;;;9.90;2.85;;;;;;;;;;5046481;28;20228;-67
2022/05/27 06:13:11;;;;;;;9.77;2.10;;;;;;;;;;5041305;28;20324;-66
2022/05/27 06:15:36;;;;;;;6.18;1.90;;;;;;;;;;5039304;28;20189;-68
2022/05/27 06:18:01;;;;;;;6.95;1.88;;;;;;;;;;5036365;28;20240;-67
2022/05/27 06:20:27;;;;;;;8.20;1.92;;;;;;;;;;5040723;28;20177;-66
2022/05/27 06:22:53;;;;;;;11.93;2.10;;;;;;;;;;5036312;28;20662;-66
2022/05/27 06:25:18;;;;;;;8.70;2.15;;;;;;;;;;5030033;28;20308;-67
2022/05/27 06:27:44;;;;;;;7.90;2.30;;;;;;;;;;5037544;28;20178;-68
2022/05/27 06:35:55;;;;;;;7.78;1.58;;;;;;;;;;5022452;28;20344;-68
2022/05/27 06:38:21;;;;;;;10.95;1.70;;;;;;;;;;5032872;28;20675;-67
2022/05/27 06:40:46;;;;;;;8.02;2.17;;;;;;;;;;5032994;28;20498;-68
2022/05/27 06:43:11;;;;;;;10.45;1.92;;;;;;;;;;5040738;28;20185;-69
2022/05/27 06:45:37;;;;;;;8.50;2.28;;;;;;;;;;5036872;28;20178;-67
2022/05/27 06:48:06;;;;;;;11.85;1.98;;;;;;;;;;5036606;28;20450;-67
2022/05/27 06:50:33;;;;;;;6.28;1.70;;;;;;;;;;5035641;28;20268;-68
2022/05/27 06:52:58;;;;;;;11.70;1.50;;;;;;;;;;5034657;28;20178;-67
2022/05/27 06:55:24;;;;;;;10.48;1.92;;;;;;;;;;5038310;28;20193;-69
2022/05/27 06:57:49;;;;;;;8.57;1.77;;;;;;;;;;5034132;28;20178;-66
2022/05/27 07:00:15;;;;;;;8.63;1.80;;;;;;;;;;5037723;28;21145;-67
2022/05/27 07:02:40;;;;;;;9.48;1.67;;;;;;;;;;5038857;28;20181;-70
2022/05/27 07:05:06;;;;;;;9.40;1.77;;;;;;;;;;5035905;28;20209;-67
2022/05/27 07:07:32;;;;;;;8.82;1.70;;;;;;;;;;5036120;28;20321;-67
2022/05/27 07:09:57;;;;;;;10.82;2.10;;;;;;;;;;5035246;28;20177;-67
2022/05/27 07:12:22;;;;;;;9.27;1.80;;;;;;;;;;5034700;28;20253;-66
2022/05/27 07:14:48;;;;;;;8.50;2.00;;;;;;;;;;5013245;28;20185;-70
2022/05/27 07:17:13;;;;;;;11.85;1.83;;;;;;;;;;5034137;28;20665;-69
2022/05/27 07:19:39;;;;;;;7.28;1.50;;;;;;;;;;5036589;28;20257;-68
2022/05/27 07:22:06;;;;;;;9.18;1.88;;;;;;;;;;5040369;28;20180;-67
2022/05/27 07:24:32;;;;;;;5.32;1.73;;;;;;;;;;5030162;28;20189;-66
2022/05/27 07:26:57;;;;;;;8.30;1.50;;;;;;;;;;5035264;28;20550;-67
2022/05/27 07:29:23;;;;;;;9.52;1.60;;;;;;;;;;5035163;28;20174;-67
2022/05/27 07:31:49;;;;;;;11.52;1.77;;;;;;;;;;5034149;28;20285;-68
2022/05/27 07:34:14;;;;;;;7.53;1.73;;;;;;;;;;5037109;28;20189;-69
2022/05/27 07:36:40;;;;;;;7.05;1.77;;;;;;;;;;5038421;28;20192;-68
2022/05/27 07:39:05;;;;;;;6.85;1.60;;;;;;;;;;5035217;28;20181;-67
2022/05/27 07:41:31;;;;;;;7.43;1.80;;;;;;;;;;5040842;28;20236;-69
2022/05/27 07:43:59;;;;;;;5.55;1.30;;;;;;;;;;5042347;28;20185;-66
2022/05/27 07:46:25;;;;;;;8.32;1.83;;;;;;;;;;5041217;28;20243;-66
2022/05/27 07:48:51;;;;;;;6.50;1.70;;;;;;;;;;5034473;28;20178;-65
2022/05/27 07:51:16;;;;;;;5.78;1.52;;;;;;;;;;5039385;28;20372;-66
2022/05/27 07:53:42;;;;;;;7.18;1.73;;;;;;;;;;5035680;28;20190;-68
2022/05/27 07:56:09;;;;;;;11.35;1.50;;;;;;;;;;5044467;28;20185;-66
2022/05/27 07:58:35;;;;;;;8.98;1.60;;;;;;;;;;5034739;28;20626;-67
2022/05/27 08:01:01;;;;;;;10.68;1.88;;;;;;;;;;5035978;28;20190;-67
2022/05/27 08:03:27;;;;;;;9.23;1.60;;;;;;;;;;5034987;28;20190;-67
2022/05/27 08:05:53;;;;;;;6.43;1.75;;;;;;;;;;5037442;28;20190;-67
2022/05/27 08:08:19;;;;;;;16.13;2.08;;;;;;;;;;5041837;28;20177;-70
2022/05/27 08:10:45;;;;;;;7.20;1.63;;;;;;;;;;5036959;28;20223;-66
2022/05/27 08:13:10;;;;;;;9.45;1.83;;;;;;;;;;5033783;28;20429;-68
2022/05/27 08:15:36;;;;;;;5.82;1.50;;;;;;;;;;5036724;28;20178;-68
2022/05/27 08:18:01;;;;;;;8.20;1.80;;;;;;;;;;5035217;28;20217;-67
2022/05/27 08:20:31;;;;;;;6.03;1.50;;;;;;;;;;5029390;28;20182;-67
2022/05/27 08:22:57;;;;;;;9.55;1.88;;;;;;;;;;5037024;28;20190;-66
2022/05/27 08:25:23;;;;;;;8.30;1.73;;;;;;;;;;5039672;28;20185;-67
2022/05/27 08:27:50;;;;;;;8.07;1.90;;;;;;;;;;5035847;28;20193;-67
2022/05/27 08:30:25;;;;;;;9.27;1.88;;;;;;;;;;5035365;28;20189;-68
2022/05/27 08:32:50;;;;;;;12.48;2.17;;;;;;;;;;5036707;28;20725;-67
2022/05/27 08:38:07;;;;;;;6.10;2.10;;;;;;;;;;5036149;28;20239;-69
2022/05/27 08:40:56;;;;;;;12.34;1.94;;;;;;;;;;4338137;28;10021661;-67
2022/05/27 08:43:30;;;;;;;8.20;1.98;;;;;;;;;;5035431;28;20281;-68
2022/05/27 08:46:01;;;;;;;7.45;2.17;;;;;;;;;;5037747;28;20570;-66
2022/05/27 08:48:33;;;;;;;11.45;1.98;;;;;;;;;;5041794;28;20256;-66
2022/05/27 08:51:07;;;;;;;8.90;1.98;;;;;;;;;;5025944;28;20221;-67
2022/05/27 08:53:48;;;;;;;9.18;2.13;;;;;;;;;;5027584;28;20720;-66
2022/05/27 08:59:28;;;;;;;12.95;2.60;;;;;;;;;;5040968;28;20259;-67
2022/05/27 09:02:02;;;;;;;9.25;1.95;;;;;;;;;;5037714;28;20661;-66
2022/05/27 09:04:34;;;;;;;9.80;2.33;;;;;;;;;;5030493;28;20635;-66
2022/05/27 09:07:20;;;;;;;12.02;2.05;;;;;;;;;;5027792;28;20400;-70
2022/05/27 09:09:46;;;;;;;15.40;3.13;;;;;;;;;;5044063;28;20209;-72
2022/05/27 09:12:48;;;;;;;9.07;2.05;;;;;;;;;;5025744;28;20271;-66
2022/05/27 09:15:26;;;;;;;10.48;1.90;;;;;;;;;;5029609;28;20267;-67
2022/05/27 09:18:45;;;;;;;8.00;1.67;;;;;;;;;;5034341;28;20214;-65
2022/05/27 09:21:18;;;;;;;8.57;1.60;;;;;;;;;;5023829;28;20190;-65
2022/05/27 09:24:03;;;;;;;10.48;2.10;;;;;;;;;;5027486;28;20224;-65
2022/05/27 09:27:00;;;;;;;14.55;2.47;;;;;;;;;;5039467;28;20218;-66
2022/05/27 09:29:59;;;;;;;12.65;2.70;;;;;;;;;;5033564;28;20878;-66
2022/05/27 09:32:54;;;;;;;9.00;1.77;;;;;;;;;;5032675;28;20254;-66
2022/05/27 09:35:26;;;;;;;9.80;2.10;;;;;;;;;;5034900;28;20202;-66
2022/05/27 09:37:54;;;;;;;10.60;1.98;;;;;;;;;;5037495;28;20845;-68
2022/05/27 09:40:29;;;;;;;9.38;1.73;;;;;;;;;;5039972;28;20503;-70
2022/05/27 09:43:13;;;;;;;9.63;2.33;;;;;;;;;;5038428;28;20181;-68
2022/05/27 09:45:40;;;;;;;8.45;2.15;;;;;;;;;;5039243;28;20213;-67
2022/05/27 09:48:06;;;;;;;12.27;2.58;;;;;;;;;;5034327;28;20231;-67
2022/05/27 09:50:39;;;;;;;13.60;2.70;;;;;;;;;;5035521;28;20197;-67
2022/05/27 09:53:06;;;;;;;12.60;2.47;;;;;;;;;;5034719;28;20327;-67
2022/05/27 09:55:46;;;;;;;10.60;2.45;;;;;;;;;;5038643;28;20653;-65
2022/05/27 09:58:12;;;;;;;9.32;2.47;;;;;;;;;;5033573;28;20813;-67
2022/05/27 10:00:43;;;;;;;9.07;1.92;;;;;;;;;;5046455;28;20173;-66
2022/05/27 10:03:27;;;;;;;14.32;2.80;;;;;;;;;;5047823;28;20227;-67
2022/05/27 10:06:16;;;;;;;10.65;2.05;;;;;;;;;;5047432;28;20714;-65
2022/05/27 10:08:58;;;;;;;12.43;2.80;;;;;;;;;;5033328;28;20193;-66
2022/05/27 10:11:26;;;;;;;10.93;2.53;;;;;;;;;;5039950;28;20686;-65
2022/05/27 10:14:27;;;;;;;11.55;2.10;;;;;;;;;;5032693;28;20193;-66
2022/05/27 10:17:09;;;;;;;11.45;2.38;;;;;;;;;;5028992;28;20292;-67
2022/05/27 10:19:43;;;;;;;10.23;2.35;;;;;;;;;;5041894;28;20715;-65
2022/05/27 10:22:24;;;;;;;9.02;2.10;;;;;;;;;;5034630;28;20185;-67
2022/05/27 10:25:04;;;;;;;11.23;2.42;;;;;;;;;;5041566;28;20177;-65
2022/05/27 10:27:39;;;;;;;14.93;2.15;;;;;;;;;;5037896;28;20522;-66
2022/05/27 10:30:18;;;;;;;12.70;2.45;;;;;;;;;;5046993;28;20201;-66
2022/05/27 10:32:44;;;;;;;7.88;1.90;;;;;;;;;;5046654;28;20629;-65
2022/05/27 10:35:31;;;;;;;10.50;1.90;;;;;;;;;;5058619;28;20178;-68
2022/05/27 10:38:22;;;;;;;7.63;1.73;;;;;;;;;;5033942;28;20181;-67
2022/05/27 10:41:14;;;;;;;9.15;1.60;;;;;;;;;;5040117;28;20312;-66
2022/05/27 10:44:12;;;;;;;8.35;2.00;;;;;;;;;;5035978;28;20182;-65
2022/05/27 10:46:59;;;;;;;8.85;2.10;;;;;;;;;;5041111;28;20735;-65
2022/05/27 10:49:52;;;;;;;7.90;1.52;;;;;;;;;;5032136;28;20634;-68
2022/05/27 10:52:29;;;;;;;13.30;2.60;;;;;;;;;;5040620;28;20252;-67
2022/05/27 10:55:23;;;;;;;5.18;1.95;;;;;;;;;;5048312;28;20192;-65
2022/05/27 11:04:16;;;;;;;8.57;1.98;;;;;;;;;;5029423;28;20264;-67
2022/05/27 11:07:01;;;;;;;13.60;2.00;;;;;;;;;;5028522;28;20618;-65
2022/05/27 11:09:45;;;;;;;8.55;2.00;;;;;;;;;;5033676;28;20205;-65
2022/05/27 11:12:19;;;;;;;8.02;1.90;;;;;;;;;;5035094;28;20305;-65
2022/05/27 11:15:11;;;;;;;6.97;1.52;;;;;;;;;;5042610;28;20224;-67
2022/05/27 11:17:53;;;;;;;9.60;1.55;;;;;;;;;;5029122;28;20197;-65
2022/05/27 11:20:39;;;;;;;8.55;2.05;;;;;;;;;;5041036;28;20256;-67
2022/05/27 11:23:16;;;;;;;11.85;1.92;;;;;;;;;;5042544;28;20189;-66
2022/05/27 11:26:06;;;;;;;9.73;1.83;;;;;;;;;;5032415;28;20656;-67
2022/05/27 11:28:54;;;;;;;7.50;2.00;;;;;;;;;;5032159;28;20201;-67
2022/05/27 11:31:41;;;;;;;9.35;1.77;;;;;;;;;;5032770;28;20276;-66
2022/05/27 11:34:30;;;;;;;9.77;1.77;;;;;;;;;;5026370;28;20182;-67
2022/05/27 11:37:20;;;;;;;9.00;1.88;;;;;;;;;;5028794;28;20193;-65
2022/05/27 11:40:14;;;;;;;9.98;1.92;;;;;;;;;;5033195;28;20236;-66
2022/05/27 11:42:57;;;;;;;7.20;2.00;;;;;;;;;;5036311;28;20181;-65
2022/05/27 11:45:24;;;;;;;8.50;2.20;;;;;;;;;;5030519;28;20174;-66
2022/05/27 11:48:47;;;;;;;13.25;2.30;;;;;;;;;;5040090;28;20173;-66
2022/05/27 11:51:37;;;;;;;6.75;1.90;;;;;;;;;;5009406;28;20231;-66
2022/05/27 11:54:25;;;;;;;9.52;1.90;;;;;;;;;;5032901;28;20659;-67
2022/05/27 11:57:05;;;;;;;10.05;2.13;;;;;;;;;;5045420;28;20197;-66
2022/05/27 11:59:47;;;;;;;7.32;1.60;;;;;;;;;;5043248;28;21698;-66
2022/05/27 12:02:45;;;;;;;12.45;2.00;;;;;;;;;;5044107;28;20232;-66
2022/05/27 12:05:16;;;;;;;11.20;2.58;;;;;;;;;;5026467;28;20220;-68
2022/05/27 12:07:46;;;;;;;9.68;1.80;;;;;;;;;;5028074;28;20208;-67
2022/05/27 12:10:24;;;;;;;10.82;2.17;;;;;;;;;;5031485;28;20178;-65
2022/05/27 12:13:01;;;;;;;8.68;1.85;;;;;;;;;;5032683;28;20223;-66
2022/05/27 12:15:34;;;;;;;7.65;1.98;;;;;;;;;;5042554;28;20189;-67
2022/05/27 12:18:02;;;;;;;7.85;2.10;;;;;;;;;;5037555;28;20188;-67
2022/05/27 12:20:32;;;;;;;14.93;3.10;;;;;;;;;;5042210;28;20196;-67
2022/05/27 12:23:02;;;;;;;6.30;1.80;;;;;;;;;;5037204;28;20205;-66
2022/05/27 12:25:35;;;;;;;12.27;2.38;;;;;;;;;;5037492;28;20185;-66
2022/05/27 12:28:02;;;;;;;11.13;2.10;;;;;;;;;;5028456;28;20178;-65
2022/05/27 12:30:33;;;;;;;12.27;2.47;;;;;;;;;;5039721;28;20185;-69
2022/05/27 12:32:59;;;;;;;10.15;2.25;;;;;;;;;;5031064;28;20614;-65
2022/05/27 12:35:34;;;;;;;9.60;2.10;;;;;;;;;;5039361;28;20184;-68
2022/05/27 12:38:05;;;;;;;8.00;2.50;;;;;;;;;;5031156;28;20191;-65
2022/05/27 12:40:30;;;;;;;14.30;2.58;;;;;;;;;;5042488;28;20255;-66
2022/05/27 12:43:00;;;;;;;10.63;2.22;;;;;;;;;;5030589;28;20722;-66
2022/05/27 12:45:47;;;;;;;7.20;2.53;;;;;;;;;;5027430;28;20186;-66
2022/05/27 12:48:34;;;;;;;6.28;1.75;;;;;;;;;;5041998;28;20181;-67
2022/05/27 12:51:07;;;;;;;5.00;1.48;;;;;;;;;;5037787;28;20793;-65
2022/05/27 12:53:45;;;;;;;8.32;2.40;;;;;;;;;;5044658;28;20659;-66
2022/05/27 13:02:21;;;;;;;8.68;1.67;;;;;;;;;;5031453;28;20333;-68
2022/05/27 13:04:50;;;;;;;11.55;2.05;;;;;;;;;;5040941;28;20694;-65
2022/05/27 13:07:21;;;;;;;12.40;1.52;;;;;;;;;;5039441;28;20190;-66
2022/05/27 13:09:48;;;;;;;6.75;1.50;;;;;;;;;;5033803;28;20185;-66
2022/05/27 13:12:52;;;;;;;9.63;2.03;;;;;;;;;;5027250;28;20662;-68
2022/05/27 13:15:20;;;;;;;5.20;1.85;;;;;;;;;;5038113;28;20503;-66
2022/05/27 13:18:09;;;;;;;9.10;1.65;;;;;;;;;;5034185;28;20204;-65
2022/05/27 13:20:53;;;;;;;13.93;2.17;;;;;;;;;;5047003;28;20227;-67
2022/05/27 13:23:23;;;;;;;12.18;2.38;;;;;;;;;;5037157;28;20178;-66
2022/05/27 13:26:12;;;;;;;7.00;1.90;;;;;;;;;;5050603;28;20295;-67
2022/05/27 13:28:52;;;;;;;9.02;1.60;;;;;;;;;;5040895;28;20193;-65
2022/05/27 13:31:25;;;;;;;10.13;1.48;;;;;;;;;;5028424;28;20202;-66
2022/05/27 13:33:57;;;;;;;9.40;1.98;;;;;;;;;;5039271;28;20193;-67
2022/05/27 13:36:25;;;;;;;6.65;1.48;;;;;;;;;;5034849;28;20570;-66
2022/05/27 13:38:59;;;;;;;7.95;1.75;;;;;;;;;;5051683;28;20256;-65
2022/05/27 13:41:27;;;;;;;9.05;1.67;;;;;;;;;;5034308;28;20538;-67
2022/05/27 13:43:53;;;;;;;9.98;1.73;;;;;;;;;;5031157;28;20194;-66
2022/05/27 13:46:28;;;;;;;11.02;2.17;;;;;;;;;;5039940;28;20658;-68
2022/05/27 13:49:08;;;;;;;12.65;2.00;;;;;;;;;;5034925;28;20236;-66
2022/05/27 13:51:40;;;;;;;10.57;2.30;;;;;;;;;;5048923;28;20203;-68
2022/05/27 13:54:16;;;;;;;11.52;1.90;;;;;;;;;;5050011;28;20186;-65
2022/05/27 13:57:04;;;;;;;8.45;1.80;;;;;;;;;;5040773;28;20431;-66
2022/05/27 13:59:34;;;;;;;6.72;1.65;;;;;;;;;;5039766;28;20680;-65
2022/05/27 14:02:02;;;;;;;7.03;2.08;;;;;;;;;;5047050;28;20178;-66
2022/05/27 14:04:33;;;;;;;12.82;1.85;;;;;;;;;;5028884;28;20194;-66
2022/05/27 14:07:00;;;;;;;8.38;1.50;;;;;;;;;;5039266;28;20640;-65
2022/05/27 14:09:29;;;;;;;9.25;2.20;;;;;;;;;;5033587;28;20269;-66
2022/05/27 14:12:04;;;;;;;8.60;1.65;;;;;;;;;;5043028;28;20233;-67
2022/05/27 14:14:46;;;;;;;8.70;1.77;;;;;;;;;;5029948;28;20650;-66
2022/05/27 14:17:17;;;;;;;8.18;1.70;;;;;;;;;;5046572;28;20358;-65
2022/05/27 14:19:44;;;;;;;6.07;1.67;;;;;;;;;;5029600;28;20182;-64
2022/05/27 14:24:53;;;;;;;8.98;1.55;;;;;;;;;;5036514;28;20188;-66
2022/05/27 14:27:25;;;;;;;13.82;2.13;;;;;;;;;;5045636;28;20604;-67
2022/05/27 14:29:56;;;;;;;10.00;2.00;;;;;;;;;;5037763;28;20223;-66
2022/05/27 14:32:24;;;;;;;6.85;1.60;;;;;;;;;;5039995;28;20233;-67
2022/05/27 14:34:52;;;;;;;7.07;1.50;;;;;;;;;;5045481;28;20261;-69
2022/05/27 14:37:54;;;;;;;8.00;1.52;;;;;;;;;;5046869;28;20184;-65
2022/05/27 14:40:25;;;;;;;7.43;1.77;;;;;;;;;;5037402;28;20561;-68
2022/05/27 14:42:50;;;;;;;11.25;1.70;;;;;;;;;;5041872;28;20219;-68
2022/05/27 14:45:53;;;;;;;11.52;1.80;;;;;;;;;;5034494;28;20197;-66
2022/05/27 14:48:22;;;;;;;13.27;2.72;;;;;;;;;;4995345;28;20676;-66
2022/05/27 14:50:48;;;;;;;13.32;2.38;;;;;;;;;;5038558;28;20193;-66
2022/05/27 14:53:16;;;;;;;8.57;1.52;;;;;;;;;;5036462;28;20727;-68
2022/05/27 14:55:41;;;;;;;10.48;2.33;;;;;;;;;;5028691;28;20178;-66
2022/05/27 14:58:10;;;;;;;13.55;2.30;;;;;;;;;;5029746;28;20232;-69
2022/05/27 15:00:46;;;;;;;9.70;1.90;;;;;;;;;;5039613;28;20225;-66
2022/05/27 15:03:30;;;;;;;12.68;1.95;;;;;;;;;;5037152;28;20189;-66
2022/05/27 15:06:13;;;;;;;7.88;1.98;;;;;;;;;;5042370;28;20174;-66
2022/05/27 15:08:40;;;;;;;9.02;1.50;;;;;;;;;;5040215;28;20732;-66
2022/05/27 15:11:22;;;;;;;9.18;2.15;;;;;;;;;;5027724;28;20200;-67
2022/05/27 15:13:58;;;;;;;10.43;2.05;;;;;;;;;;5034455;28;20698;-67
2022/05/27 15:16:24;;;;;;;12.85;1.80;;;;;;;;;;5047121;28;20599;-66
2022/05/27 15:19:03;;;;;;;10.98;1.65;;;;;;;;;;5037713;28;20224;-65
2022/05/27 15:21:40;;;;;;;16.20;2.70;;;;;;;;;;5046069;28;20268;-66
2022/05/27 15:24:24;;;;;;;11.32;1.60;;;;;;;;;;5036001;28;20195;-66
2022/05/27 15:35:44;;;;;;;6.40;1.63;;;;;;;;;;5035810;28;20231;-67
2022/05/27 15:38:11;;;;;;;13.32;2.05;;;;;;;;;;5042513;28;20264;-65
2022/05/27 15:40:39;;;;;;;8.55;1.83;;;;;;;;;;5032655;28;20182;-66
2022/05/27 15:43:20;;;;;;;9.75;1.73;;;;;;;;;;5041121;28;20178;-65
2022/05/27 15:45:47;;;;;;;6.13;2.08;;;;;;;;;;5038104;28;20193;-65
2022/05/27 15:48:17;;;;;;;11.27;1.70;;;;;;;;;;5027747;28;20277;-65